Whale Point, California Weather observations

Data are for observation ending at time listed.
 Day   Time    Ave.   Ave.  Ave.  Vector   Max.   Stn.    Total    Solar   Ave.  
  of    of     Air    Rel.  Wind   Wind    Wind   Baro.  Precip.   Rad.    Soil  
Year   Day     Temp.  Hum.  Speed  Dir.    Gust   Pres.                    Temp. 
2016   (PST)    F      %     mph   deg.    mph     mb.     in.     W/m2     F   
------------------------------------------------------------------------------
 146    1:40   51.0    83    1.9    85      3.9   996.3    0.00       0    71.8
 146    1:50   51.4    84    0.4   125      1.8   996.3    0.00       0    71.7
 146    2:00   51.4    84    0.3     7      1.8   996.6    0.00       0    71.6
 146    2:10   51.2    85    2.9    43      6.4   996.6    0.00       0    71.5
 146    2:20   50.6    85    4.8    51      6.4   996.6    0.00       0    71.3
 146    2:30   51.1    84    3.2    40      5.0   996.6    0.00       0    71.2
 146    2:40   51.2    84    1.4    60      3.7   996.6    0.00       0    71.1
 146    2:50   51.3    84    2.3    57      4.5   996.6    0.00       0    71.0
 146    3:00   51.3    84    4.3    78      6.4   996.6    0.00       0    70.9
 146    3:10   51.6    84    3.7    99      6.6   996.6    0.00       0    70.8
 146    3:20   52.0    84    1.7   167      5.1   996.6    0.00       0    70.7
 146    3:30  99999.0   99999  99999.0   99999    99999.0   99999.0   99999.00   99999    99999.0
 146    3:40   50.5    84    3.0    32      6.2   996.6    0.00       0    70.5
 146    3:50   50.8    86    1.1    62      2.6   996.6    0.00       0    70.4
 146    4:00   51.3    86    0.8    48      3.0   996.6    0.00       0    70.3
 146    4:10   51.2    86    1.2   359      3.4   997.0    0.00       0    70.2
 146    4:20   51.2    86    0.7    34      2.1   997.0    0.00       0    70.1
 146    4:30   51.2    86    0.8    87      2.8   997.0    0.00       0    70.0
 146    4:40   51.3    86    0.2    72      0.9   997.0    0.00       0    69.9
 146    4:50   51.3    86    1.0    63      3.3   997.3    0.00       1    69.9
 146    5:00   50.9    84    3.8    52      5.5   997.3    0.00       2    69.8
 146    5:10   51.0    84    3.0    61      4.4   997.3    0.00       4    69.7
 146    5:20   51.1    84    2.7    72      4.3   997.3    0.00       6    69.6
 146    5:30   51.1    83    3.6    33      5.6   997.6    0.00      12    69.5
 146    5:40   51.1    83    4.0    42      5.7   997.6    0.00      21    69.5
 146    5:50   51.4    82    1.5    49      3.3   997.6    0.00      33    69.4
 146    6:00   51.5    82    1.6    25      2.6   997.6    0.00      54    69.3
 146    6:10   51.8    82    0.7    23      2.2   997.6    0.00      81    69.3
 146    6:20   52.3    81    0.4    78      1.7   997.6    0.00     110    69.2
 146    6:30   52.4    80    1.1   359      3.4   997.6    0.00     116    69.1
 146    6:40   52.3    80    0.3   117      2.5   997.6    0.00      62    69.1
 146    6:50   52.3    80    0.2    88      1.1   998.0    0.00     107    69.0
 146    7:00   53.3    80    0.5   186      3.1   998.0    0.00     383    69.0
 146    7:10   54.3    78    1.8   183      3.5   998.0    0.00     463    68.8
 146    7:20   55.0    77    2.4   170      4.7   998.3    0.00     487    68.7
 146    7:30   55.2    74    2.0   191      4.5   998.3    0.00     302    68.7
 146    7:40   53.9    77    3.0   100     10.8   998.3    0.00     401    68.7
 146    7:50   54.9    76    3.0   202      5.6   998.6    0.00     567    68.6
 146    8:00   54.4    76    3.2   195      5.6   998.6    0.00     569    68.6
 146    8:10   54.2    76    2.7   206      4.5   998.6    0.00     344    68.6
 146    8:20   54.5    77    3.2   196      5.0   998.6    0.00     679    68.5
 146    8:30   54.6    76    3.4   211      6.4   998.6    0.00     705    68.5
 146    8:40   55.5    75    3.2   198      5.5   999.0    0.00     736    68.5
 146    8:50   55.5    74    3.7   205      7.3   999.0    0.00     766    68.5
 146    9:00   54.8    76    4.5   210      7.3   999.0    0.00     684    68.5
 146    9:10   55.6    75    2.6   219      6.5   999.0    0.00     562    68.5
 146    9:20   55.6    75    4.5   206      8.8   999.0    0.00     757    68.5
 146    9:30   56.3    74    3.7   197      6.6   999.3    0.00     753    68.5
 146    9:40   55.7    74    4.6   222     11.3   999.3    0.00     729    68.5
 146    9:50   55.5    76    5.2   218      9.3   999.3    0.00     742    68.6
 146   10:00   56.4    75    4.0   215      6.6   999.3    0.00     930    68.6
 146   10:10   57.7    72    3.2   249      8.9   999.3    0.00     952    68.6
 146   10:20   58.1    72    4.7   282     11.2   999.7    0.00    1021    68.7
 146   10:30   57.3    73    5.7   298     12.1   999.7    0.00     663    68.8
 146   10:40   57.1    74    5.0   303      9.3   999.7    0.00     722    68.8
 146   10:50   58.7    71    4.7   295      9.2   999.7    0.00    1093    68.9
 146   11:00   59.5    69    4.9   292     11.2   999.7    0.00    1029    69.0
 146   11:10   58.9    71    5.4   290     11.8   1000.0    0.00    1078    69.1
 146   11:20   58.9    71    5.4   293     10.5   1000.0    0.00    1096    69.2
 146   11:30   58.2    74    6.5   278     14.0   999.7    0.00    1091    69.3
 146   11:40   57.4    76    6.2   342     13.9   999.7    0.00    1101    69.4
 146   11:50   57.6    76    8.7   353     23.3   1000.0    0.00    1204    69.6
 146   12:00   56.2    79   10.2     0     21.9   1000.0    0.00    1078    69.7
 146   12:10   55.9    80   12.2     5     24.9   999.7    0.00    1053    69.9
 146   12:20   55.6    80   14.2   358     27.2   999.7    0.00     883    70.0
 146   12:30   55.7    80   11.9     1     21.6   999.7    0.00     786    70.2
 146   12:40   56.3    79    8.3     6     23.5   999.7    0.00     679    70.4
 146   12:50   56.6    78    9.7   355     19.2   999.7    0.00     716    70.5
 146   13:00   55.9    79   11.5   358     24.3   999.7    0.00     763    70.7
 146   13:10   55.6    81   10.8     7     23.5   999.7    0.00     589    70.9
 146   13:20   54.9    83    7.6     9     20.9   999.7    0.00     440    71.0
 146   13:30   54.7    84    8.4     7     19.8   999.7    0.00     310    71.2
 146   13:40   54.5    85    6.4     8     17.8   999.7    0.00     253    71.4
 146   13:50   54.5    85    7.0     8     16.7   999.7    0.00     298    71.6
 146   14:00   54.6    84    8.3    17     20.1   999.7    0.00     327    71.7
 146   14:10   54.7    84    8.6    15     25.1   999.3    0.00     342    71.9
 146   14:20   54.5    84   11.3    11     21.0   999.3    0.00     369    72.0
 146   14:30   54.4    84    9.9     8     19.4   999.3    0.00     318    72.1
 146   14:40   54.7    84    7.7    11     21.4   999.3    0.00     299    72.2
 146   14:50   55.3    82    8.3    27     16.6   999.3    0.00     325    72.3
 146   15:00   55.2    81    7.6    17     18.1   999.3    0.00     321    72.3
 146   15:10   55.2    81    4.4    24     12.1   999.3    0.00     262    72.4
 146   15:20   55.0    81    5.7     6     12.3   999.3    0.00     246    72.5
 146   15:30   54.8    82    7.3    27     19.2   999.3    0.00     234    72.5
 146   15:40   55.1    82    4.2    23     11.2   999.3    0.00     249    72.5
 146   15:50   55.7    81    2.6    36     10.7   999.3    0.00     229    72.6
 146   16:00   55.1    79    9.8     2     19.1   999.3    0.00     208    72.6
 146   16:10   54.9    79    9.6   358     19.6   999.3    0.00     169    72.6
 146   16:20   54.8    79   10.1   356     23.9   999.3    0.00     131    72.6
 146   16:30   55.0    79    9.0     8     21.1   999.3    0.00     166    72.7
 146   16:40   55.5    78    6.9    44     14.2   999.3    0.00     217    72.7
 146   16:50   55.8    78    3.2    18     12.7   999.3    0.00     184    72.7
 146   17:00   55.4    79    8.1   358     14.8   999.3    0.00     136    72.7
 146   17:10   54.6    81    8.3   358     17.5   999.3    0.00     154    72.7
 146   17:20   54.6    81    8.9     6     21.3   999.0    0.00     118    72.7
 146   17:30   54.7    81    8.6   358     20.5   999.0    0.00     123    72.6
 146   17:40   54.8    80    7.8   345     16.5   999.0    0.00      99    72.6
 146   17:50   54.6    81    9.9   349     20.6   999.0    0.00      72    72.6
 146   18:00   54.4    81    8.3   346     14.4   999.0    0.00      62    72.6
 146   18:10   54.6    81    7.5   346     14.2   999.0    0.00      54    72.6
 146   18:20   54.7    81    8.8   355     17.5   998.6    0.00      90    72.5
 146   18:30   55.4    79    5.5   340     12.3   998.6    0.00      89    72.5
 146   18:40   55.7    78    5.0   329     12.3   998.6    0.00      77    72.4
 146   18:50   55.7    78    3.6   316      8.6   999.0    0.00      61    72.4
 146   19:00   55.2    79    2.6   313      9.2   999.0    0.00      27    72.3
 146   19:10   54.5    80    1.6    32      5.0   999.0    0.00       8    72.3
 146   19:20   54.2    81    2.5     6      4.5   998.6    0.00       3    72.2
 146   19:30   54.0    82    0.8   314      4.7   998.6    0.00       1    72.2
 146   19:40   53.5    82    1.3   332      4.2   998.6    0.00       0    72.1
 146   19:50   53.3    83    1.7     5      5.4   999.0    0.00       0    72.1
 146   20:00   53.2    83    1.0    56      3.5   999.0    0.00       0    72.0
 146   20:10   53.3    83    1.4    29      4.4   999.0    0.00       0    71.9
 146   20:20   53.0    83    2.1    92      4.2   999.0    0.00       0    71.8
 146   20:30   52.4    84    0.6   130      2.6   999.0    0.00       0    71.7
 146   20:40   52.2    84    1.6    97      2.6   999.0    0.00       0    71.7
 146   20:50   52.3    85    0.6    70      2.7   999.0    0.00       0    71.6
 146   21:00   52.2    85    1.0    91      3.3   999.0    0.00       0    71.5
 146   21:10   52.2    85    1.2   106      2.7   999.0    0.00       0    71.4
 146   21:20   52.4    85    0.4    71      1.2   999.0    0.00       0    71.3
 146   21:30   52.3    85    2.2    66      3.6   999.0    0.00       0    71.2
 146   21:40   52.2    84    2.0   101      3.6   999.0    0.00       0    71.1
 146   21:50   51.7    85    1.3   140      3.1   999.0    0.00       0    71.0
 146   22:00   51.9    86    2.3   101      4.1   999.0    0.00       0    70.9
 146   22:10   51.4    86    2.5    58      4.2   999.0    0.00       0    70.8
 146   22:20   51.4    86    1.5   140      4.1   999.0    0.00       0    70.7
 146   22:30   51.6    86    2.8   104      4.7   998.6    0.00       0    70.6
 146   22:40   51.6    85    3.6    74      6.0   998.6    0.00       0    70.5
 146   22:50   51.6    85    3.0   142      5.2   998.6    0.00       0    70.4
 146   23:00   51.4    85    1.3    61      2.9   998.6    0.00       0    70.3
 146   23:10   51.3    85    0.7    36      2.0   998.6    0.00       0    70.2
 146   23:20   51.4    85    1.1   137      3.7   998.6    0.00       0    70.1
 146   23:30   51.2    85    3.1   134      5.0   998.3    0.00       0    70.0
 146   23:40   51.4    85    3.1   116      5.3   998.3    0.00       0    69.9
 146   23:50   51.7    84    2.3   121      4.3   998.3    0.00       0    69.8
 147    0:00   51.5    84    1.6   142      4.0   998.3    0.00       0    69.7
 147    0:10   51.2    84    1.8   113      4.7   998.3    0.00       0    69.6
 147    0:20   50.9    85    1.9    96      4.6   998.0    0.00       0    69.5
 147    0:30   50.9    85    2.7    62      4.5   998.0    0.00       0    69.4
 147    0:40   50.8    84    1.6    92      3.8   998.0    0.00       0    69.3
 147    0:50   50.7    84    1.2   137      2.6   998.0    0.00       0    69.2
 147    1:00   50.6    85    1.8   105      3.4   997.6    0.00       0    69.1
 147    1:10   50.8    85    2.1    84      3.7   997.6    0.00       0    69.0
 147    1:20   50.8    84    1.6   116      3.1   997.6    0.00       0    68.9
 147    1:30   50.3    85    2.6   142      4.6   997.3    0.00       0    68.8

Return to Whale Point graphs page.


Western Regional Climate Center,wrcc@dri.edu